sensor_id;sensor_type;location;lat;lon;timestamp;temperature;humidity
44223;DHT22;29895;48.804;9.386;2023-07-31T00:00:13;14.90;99.90
44223;DHT22;29895;48.804;9.386;2023-07-31T00:02:39;14.80;99.90
44223;DHT22;29895;48.804;9.386;2023-07-31T00:05:05;14.80;99.90
44223;DHT22;29895;48.804;9.386;2023-07-31T00:07:32;14.70;99.90
44223;DHT22;29895;48.804;9.386;2023-07-31T00:09:57;14.70;99.90
44223;DHT22;29895;48.804;9.386;2023-07-31T00:12:23;14.60;99.90
44223;DHT22;29895;48.804;9.386;2023-07-31T00:14:49;14.50;99.90
44223;DHT22;29895;48.804;9.386;2023-07-31T00:17:17;14.40;99.90
44223;DHT22;29895;48.804;9.386;2023-07-31T00:19:43;14.30;99.90
44223;DHT22;29895;48.804;9.386;2023-07-31T00:22:08;14.30;99.90
44223;DHT22;29895;48.804;9.386;2023-07-31T00:24:34;14.30;99.90
44223;DHT22;29895;48.804;9.386;2023-07-31T00:26:59;14.30;99.90
44223;DHT22;29895;48.804;9.386;2023-07-31T00:29:25;14.30;99.90
44223;DHT22;29895;48.804;9.386;2023-07-31T00:31:51;14.30;99.90
44223;DHT22;29895;48.804;9.386;2023-07-31T00:34:16;14.30;99.90
44223;DHT22;29895;48.804;9.386;2023-07-31T00:36:42;14.30;99.90
44223;DHT22;29895;48.804;9.386;2023-07-31T00:39:07;14.40;99.90
44223;DHT22;29895;48.804;9.386;2023-07-31T00:41:33;14.50;99.90
44223;DHT22;29895;48.804;9.386;2023-07-31T00:43:59;14.40;99.90
44223;DHT22;29895;48.804;9.386;2023-07-31T00:46:24;14.30;99.90
44223;DHT22;29895;48.804;9.386;2023-07-31T00:48:50;14.30;99.90
44223;DHT22;29895;48.804;9.386;2023-07-31T00:51:16;14.30;99.90
44223;DHT22;29895;48.804;9.386;2023-07-31T00:53:43;14.20;99.90
44223;DHT22;29895;48.804;9.386;2023-07-31T00:56:09;14.10;99.90
44223;DHT22;29895;48.804;9.386;2023-07-31T00:58:35;14.10;99.90
44223;DHT22;29895;48.804;9.386;2023-07-31T01:01:01;14.00;99.90
44223;DHT22;29895;48.804;9.386;2023-07-31T01:03:26;14.00;99.90
44223;DHT22;29895;48.804;9.386;2023-07-31T01:08:27;14.00;99.90
44223;DHT22;29895;48.804;9.386;2023-07-31T01:10:59;14.00;99.90
44223;DHT22;29895;48.804;9.386;2023-07-31T01:13:26;14.00;99.90
44223;DHT22;29895;48.804;9.386;2023-07-31T01:15:53;13.90;99.90
44223;DHT22;29895;48.804;9.386;2023-07-31T01:18:19;13.90;99.90
44223;DHT22;29895;48.804;9.386;2023-07-31T01:20:50;13.90;99.90
44223;DHT22;29895;48.804;9.386;2023-07-31T01:26:00;13.70;99.90
44223;DHT22;29895;48.804;9.386;2023-07-31T01:31:26;13.70;99.90
44223;DHT22;29895;48.804;9.386;2023-07-31T01:33:57;13.60;99.90
44223;DHT22;29895;48.804;9.386;2023-07-31T01:36:25;13.50;99.90
44223;DHT22;29895;48.804;9.386;2023-07-31T01:38:51;13.50;99.90
44223;DHT22;29895;48.804;9.386;2023-07-31T01:41:17;13.50;99.90
44223;DHT22;29895;48.804;9.386;2023-07-31T01:43:45;13.50;99.90
44223;DHT22;29895;48.804;9.386;2023-07-31T01:46:11;13.50;99.90
44223;DHT22;29895;48.804;9.386;2023-07-31T01:48:36;13.50;99.90
44223;DHT22;29895;48.804;9.386;2023-07-31T01:51:02;13.50;99.90
44223;DHT22;29895;48.804;9.386;2023-07-31T01:53:30;13.40;99.90
44223;DHT22;29895;48.804;9.386;2023-07-31T01:55:56;13.40;99.90
44223;DHT22;29895;48.804;9.386;2023-07-31T01:58:22;13.30;99.90
44223;DHT22;29895;48.804;9.386;2023-07-31T02:00:47;13.40;99.90
44223;DHT22;29895;48.804;9.386;2023-07-31T02:03:13;13.40;99.90
44223;DHT22;29895;48.804;9.386;2023-07-31T02:05:46;13.40;99.90
44223;DHT22;29895;48.804;9.386;2023-07-31T02:08:12;13.40;99.90
44223;DHT22;29895;48.804;9.386;2023-07-31T02:10:38;13.40;99.90
44223;DHT22;29895;48.804;9.386;2023-07-31T02:13:04;13.40;99.90
44223;DHT22;29895;48.804;9.386;2023-07-31T02:15:30;13.40;99.90
44223;DHT22;29895;48.804;9.386;2023-07-31T02:17:56;13.50;99.90
44223;DHT22;29895;48.804;9.386;2023-07-31T02:20:21;13.50;99.90
44223;DHT22;29895;48.804;9.386;2023-07-31T02:22:47;13.50;99.90
44223;DHT22;29895;48.804;9.386;2023-07-31T02:25:13;13.40;99.90
44223;DHT22;29895;48.804;9.386;2023-07-31T02:27:39;13.50;99.90
44223;DHT22;29895;48.804;9.386;2023-07-31T02:30:05;13.50;99.90
44223;DHT22;29895;48.804;9.386;2023-07-31T02:32:31;13.50;99.90
44223;DHT22;29895;48.804;9.386;2023-07-31T02:34:56;13.50;99.90
44223;DHT22;29895;48.804;9.386;2023-07-31T02:37:22;13.50;99.90
44223;DHT22;29895;48.804;9.386;2023-07-31T02:39:48;13.40;99.90
44223;DHT22;29895;48.804;9.386;2023-07-31T02:42:14;13.50;99.90
44223;DHT22;29895;48.804;9.386;2023-07-31T02:44:40;13.50;99.90
44223;DHT22;29895;48.804;9.386;2023-07-31T02:47:05;13.50;99.90
44223;DHT22;29895;48.804;9.386;2023-07-31T02:49:31;13.60;99.90
44223;DHT22;29895;48.804;9.386;2023-07-31T02:51:57;13.70;99.90
44223;DHT22;29895;48.804;9.386;2023-07-31T02:54:23;13.60;99.90
44223;DHT22;29895;48.804;9.386;2023-07-31T02:56:48;13.60;99.90
44223;DHT22;29895;48.804;9.386;2023-07-31T02:59:15;13.70;99.90
44223;DHT22;29895;48.804;9.386;2023-07-31T03:01:40;13.80;99.90
44223;DHT22;29895;48.804;9.386;2023-07-31T03:04:07;13.60;99.90
44223;DHT22;29895;48.804;9.386;2023-07-31T03:06:33;13.60;99.90
44223;DHT22;29895;48.804;9.386;2023-07-31T03:08:58;13.50;99.90
44223;DHT22;29895;48.804;9.386;2023-07-31T03:11:24;13.50;99.90
44223;DHT22;29895;48.804;9.386;2023-07-31T03:13:49;13.50;99.90
44223;DHT22;29895;48.804;9.386;2023-07-31T03:16:15;13.50;99.90
44223;DHT22;29895;48.804;9.386;2023-07-31T03:18:41;13.50;99.90
44223;DHT22;29895;48.804;9.386;2023-07-31T03:21:06;13.50;99.90
44223;DHT22;29895;48.804;9.386;2023-07-31T03:23:32;13.30;99.90
44223;DHT22;29895;48.804;9.386;2023-07-31T03:26:03;13.20;99.90
44223;DHT22;29895;48.804;9.386;2023-07-31T03:28:29;13.20;99.90
44223;DHT22;29895;48.804;9.386;2023-07-31T03:30:55;13.20;99.90
44223;DHT22;29895;48.804;9.386;2023-07-31T03:33:21;13.10;99.90
44223;DHT22;29895;48.804;9.386;2023-07-31T03:35:47;13.10;99.90
44223;DHT22;29895;48.804;9.386;2023-07-31T03:38:12;13.10;99.90
44223;DHT22;29895;48.804;9.386;2023-07-31T03:40:38;13.00;99.90
44223;DHT22;29895;48.804;9.386;2023-07-31T03:43:05;13.10;99.90
44223;DHT22;29895;48.804;9.386;2023-07-31T03:45:31;13.10;99.90
44223;DHT22;29895;48.804;9.386;2023-07-31T03:47:56;13.20;99.90
44223;DHT22;29895;48.804;9.386;2023-07-31T03:50:22;13.30;99.90
44223;DHT22;29895;48.804;9.386;2023-07-31T03:52:48;13.30;99.90
44223;DHT22;29895;48.804;9.386;2023-07-31T03:55:14;13.40;99.90
44223;DHT22;29895;48.804;9.386;2023-07-31T03:57:39;13.40;99.90
44223;DHT22;29895;48.804;9.386;2023-07-31T04:00:05;13.50;99.90
44223;DHT22;29895;48.804;9.386;2023-07-31T04:02:31;13.50;99.90
44223;DHT22;29895;48.804;9.386;2023-07-31T04:04:57;13.60;99.90
44223;DHT22;29895;48.804;9.386;2023-07-31T04:07:23;13.60;99.90
44223;DHT22;29895;48.804;9.386;2023-07-31T04:09:48;13.70;99.90
44223;DHT22;29895;48.804;9.386;2023-07-31T04:12:14;13.80;99.90
44223;DHT22;29895;48.804;9.386;2023-07-31T04:14:39;13.80;99.90
44223;DHT22;29895;48.804;9.386;2023-07-31T04:17:05;13.90;99.90
44223;DHT22;29895;48.804;9.386;2023-07-31T04:19:31;14.10;99.90
44223;DHT22;29895;48.804;9.386;2023-07-31T04:21:57;14.10;99.90
44223;DHT22;29895;48.804;9.386;2023-07-31T04:24:22;14.20;99.90
44223;DHT22;29895;48.804;9.386;2023-07-31T04:26:51;14.30;99.90
44223;DHT22;29895;48.804;9.386;2023-07-31T04:29:17;14.30;99.90
44223;DHT22;29895;48.804;9.386;2023-07-31T04:31:43;14.40;99.90
44223;DHT22;29895;48.804;9.386;2023-07-31T04:34:08;14.50;99.90
44223;DHT22;29895;48.804;9.386;2023-07-31T04:36:35;14.60;99.90
44223;DHT22;29895;48.804;9.386;2023-07-31T04:39:00;14.70;99.90
44223;DHT22;29895;48.804;9.386;2023-07-31T04:41:26;14.80;99.90
44223;DHT22;29895;48.804;9.386;2023-07-31T04:43:52;14.90;99.90
44223;DHT22;29895;48.804;9.386;2023-07-31T04:46:18;15.00;99.90
44223;DHT22;29895;48.804;9.386;2023-07-31T04:48:44;15.10;99.90
44223;DHT22;29895;48.804;9.386;2023-07-31T04:51:09;15.20;99.90
44223;DHT22;29895;48.804;9.386;2023-07-31T04:53:35;15.40;99.90
44223;DHT22;29895;48.804;9.386;2023-07-31T04:56:01;15.50;99.90
44223;DHT22;29895;48.804;9.386;2023-07-31T04:58:27;15.50;99.90
44223;DHT22;29895;48.804;9.386;2023-07-31T05:00:52;15.50;99.90
44223;DHT22;29895;48.804;9.386;2023-07-31T05:03:18;15.50;99.90
44223;DHT22;29895;48.804;9.386;2023-07-31T05:05:44;15.60;99.90
44223;DHT22;29895;48.804;9.386;2023-07-31T05:08:09;15.60;99.90
44223;DHT22;29895;48.804;9.386;2023-07-31T05:10:35;15.80;99.90
44223;DHT22;29895;48.804;9.386;2023-07-31T05:13:01;16.00;99.90
44223;DHT22;29895;48.804;9.386;2023-07-31T05:15:26;16.10;99.90
44223;DHT22;29895;48.804;9.386;2023-07-31T05:17:52;16.10;99.90
44223;DHT22;29895;48.804;9.386;2023-07-31T05:20:18;16.20;99.90
44223;DHT22;29895;48.804;9.386;2023-07-31T05:22:43;16.30;99.90
44223;DHT22;29895;48.804;9.386;2023-07-31T05:25:09;16.40;99.90
44223;DHT22;29895;48.804;9.386;2023-07-31T05:27:35;16.50;99.90
44223;DHT22;29895;48.804;9.386;2023-07-31T05:30:00;16.60;99.90
44223;DHT22;29895;48.804;9.386;2023-07-31T05:32:26;16.70;99.90
44223;DHT22;29895;48.804;9.386;2023-07-31T05:34:52;16.80;99.90
44223;DHT22;29895;48.804;9.386;2023-07-31T05:37:19;16.90;99.90
44223;DHT22;29895;48.804;9.386;2023-07-31T05:39:45;17.00;99.90
44223;DHT22;29895;48.804;9.386;2023-07-31T05:42:10;17.20;99.90
44223;DHT22;29895;48.804;9.386;2023-07-31T05:44:36;17.40;99.90
44223;DHT22;29895;48.804;9.386;2023-07-31T05:47:01;17.50;99.90
44223;DHT22;29895;48.804;9.386;2023-07-31T05:49:27;17.90;99.90
44223;DHT22;29895;48.804;9.386;2023-07-31T05:51:53;18.30;99.90
44223;DHT22;29895;48.804;9.386;2023-07-31T05:54:19;18.60;99.90
44223;DHT22;29895;48.804;9.386;2023-07-31T05:56:44;18.80;99.90
44223;DHT22;29895;48.804;9.386;2023-07-31T05:59:12;18.90;99.90
44223;DHT22;29895;48.804;9.386;2023-07-31T06:01:38;19.20;99.90
44223;DHT22;29895;48.804;9.386;2023-07-31T06:04:04;19.30;99.90
44223;DHT22;29895;48.804;9.386;2023-07-31T06:06:30;19.50;99.90
44223;DHT22;29895;48.804;9.386;2023-07-31T06:08:56;19.60;99.90
44223;DHT22;29895;48.804;9.386;2023-07-31T06:11:22;19.60;99.90
44223;DHT22;29895;48.804;9.386;2023-07-31T06:13:47;19.60;99.90
44223;DHT22;29895;48.804;9.386;2023-07-31T06:16:14;19.50;99.90
44223;DHT22;29895;48.804;9.386;2023-07-31T06:18:41;19.40;99.90
44223;DHT22;29895;48.804;9.386;2023-07-31T06:21:07;19.50;99.90
44223;DHT22;29895;48.804;9.386;2023-07-31T06:23:33;19.40;99.90
44223;DHT22;29895;48.804;9.386;2023-07-31T06:25:59;19.50;99.90
44223;DHT22;29895;48.804;9.386;2023-07-31T06:28:31;19.50;99.90
44223;DHT22;29895;48.804;9.386;2023-07-31T06:31:00;19.70;99.90
44223;DHT22;29895;48.804;9.386;2023-07-31T06:33:27;20.10;99.90
44223;DHT22;29895;48.804;9.386;2023-07-31T06:35:53;20.50;99.90
44223;DHT22;29895;48.804;9.386;2023-07-31T06:38:22;20.60;99.90
44223;DHT22;29895;48.804;9.386;2023-07-31T06:40:48;20.60;99.90
44223;DHT22;29895;48.804;9.386;2023-07-31T06:43:14;20.70;99.90
44223;DHT22;29895;48.804;9.386;2023-07-31T06:45:40;20.90;99.90
44223;DHT22;29895;48.804;9.386;2023-07-31T06:48:05;21.00;99.90
44223;DHT22;29895;48.804;9.386;2023-07-31T06:50:31;21.00;99.90
44223;DHT22;29895;48.804;9.386;2023-07-31T06:52:57;21.00;99.90
44223;DHT22;29895;48.804;9.386;2023-07-31T06:55:24;21.00;99.90
44223;DHT22;29895;48.804;9.386;2023-07-31T06:57:52;20.90;99.90
44223;DHT22;29895;48.804;9.386;2023-07-31T07:00:19;20.70;99.90
44223;DHT22;29895;48.804;9.386;2023-07-31T07:02:45;20.70;99.90
44223;DHT22;29895;48.804;9.386;2023-07-31T07:05:13;21.10;99.90
44223;DHT22;29895;48.804;9.386;2023-07-31T07:07:38;21.40;99.90
44223;DHT22;29895;48.804;9.386;2023-07-31T07:10:04;21.80;99.90
44223;DHT22;29895;48.804;9.386;2023-07-31T07:12:31;21.80;99.90
44223;DHT22;29895;48.804;9.386;2023-07-31T07:14:57;21.90;99.90
44223;DHT22;29895;48.804;9.386;2023-07-31T07:17:23;22.00;99.90
44223;DHT22;29895;48.804;9.386;2023-07-31T07:19:49;22.00;99.90
44223;DHT22;29895;48.804;9.386;2023-07-31T07:22:15;22.50;99.90
44223;DHT22;29895;48.804;9.386;2023-07-31T07:24:41;22.70;99.90
44223;DHT22;29895;48.804;9.386;2023-07-31T07:27:06;22.90;99.90
44223;DHT22;29895;48.804;9.386;2023-07-31T07:29:34;23.40;99.90
44223;DHT22;29895;48.804;9.386;2023-07-31T07:32:00;23.50;99.90
44223;DHT22;29895;48.804;9.386;2023-07-31T07:34:26;23.50;99.90
44223;DHT22;29895;48.804;9.386;2023-07-31T07:36:52;23.40;99.90
44223;DHT22;29895;48.804;9.386;2023-07-31T07:39:18;23.50;99.90
44223;DHT22;29895;48.804;9.386;2023-07-31T07:41:43;23.40;99.90
44223;DHT22;29895;48.804;9.386;2023-07-31T07:44:09;23.20;99.90
44223;DHT22;29895;48.804;9.386;2023-07-31T07:46:35;23.30;99.90
44223;DHT22;29895;48.804;9.386;2023-07-31T07:49:00;23.10;99.90
44223;DHT22;29895;48.804;9.386;2023-07-31T07:51:26;23.10;99.90
44223;DHT22;29895;48.804;9.386;2023-07-31T07:53:52;23.10;99.90
44223;DHT22;29895;48.804;9.386;2023-07-31T07:56:17;23.20;99.90
44223;DHT22;29895;48.804;9.386;2023-07-31T07:58:43;23.30;99.90
44223;DHT22;29895;48.804;9.386;2023-07-31T08:01:09;23.70;99.90
44223;DHT22;29895;48.804;9.386;2023-07-31T08:03:34;23.80;99.90
44223;DHT22;29895;48.804;9.386;2023-07-31T08:06:00;23.70;99.90
44223;DHT22;29895;48.804;9.386;2023-07-31T08:08:27;23.90;99.90
44223;DHT22;29895;48.804;9.386;2023-07-31T08:10:53;24.30;99.90
44223;DHT22;29895;48.804;9.386;2023-07-31T08:13:19;24.70;99.90
44223;DHT22;29895;48.804;9.386;2023-07-31T08:15:45;25.10;99.90
44223;DHT22;29895;48.804;9.386;2023-07-31T08:18:11;25.00;99.90
44223;DHT22;29895;48.804;9.386;2023-07-31T08:20:37;25.00;99.90
44223;DHT22;29895;48.804;9.386;2023-07-31T08:23:03;25.20;99.90
44223;DHT22;29895;48.804;9.386;2023-07-31T08:25:29;25.60;99.20
44223;DHT22;29895;48.804;9.386;2023-07-31T08:27:54;25.80;98.70
44223;DHT22;29895;48.804;9.386;2023-07-31T08:30:21;26.00;98.80
44223;DHT22;29895;48.804;9.386;2023-07-31T08:32:46;26.30;98.00
44223;DHT22;29895;48.804;9.386;2023-07-31T08:35:12;26.70;98.90
44223;DHT22;29895;48.804;9.386;2023-07-31T08:37:38;26.70;97.50
44223;DHT22;29895;48.804;9.386;2023-07-31T08:40:04;26.90;97.20
44223;DHT22;29895;48.804;9.386;2023-07-31T08:42:30;26.80;96.50
44223;DHT22;29895;48.804;9.386;2023-07-31T08:44:56;26.70;96.30
44223;DHT22;29895;48.804;9.386;2023-07-31T08:47:23;26.60;96.80
44223;DHT22;29895;48.804;9.386;2023-07-31T08:49:51;26.20;96.10
44223;DHT22;29895;48.804;9.386;2023-07-31T08:52:16;26.30;96.70
44223;DHT22;29895;48.804;9.386;2023-07-31T08:54:42;26.50;97.00
44223;DHT22;29895;48.804;9.386;2023-07-31T08:57:08;26.60;95.90
44223;DHT22;29895;48.804;9.386;2023-07-31T08:59:35;26.40;96.10
44223;DHT22;29895;48.804;9.386;2023-07-31T09:02:07;26.10;96.30
44223;DHT22;29895;48.804;9.386;2023-07-31T09:04:33;26.10;96.30
44223;DHT22;29895;48.804;9.386;2023-07-31T09:07:03;26.30;96.50
44223;DHT22;29895;48.804;9.386;2023-07-31T09:09:32;26.20;95.70
44223;DHT22;29895;48.804;9.386;2023-07-31T09:11:59;26.20;96.10
44223;DHT22;29895;48.804;9.386;2023-07-31T09:14:25;26.10;96.20
44223;DHT22;29895;48.804;9.386;2023-07-31T09:16:52;26.10;96.30
44223;DHT22;29895;48.804;9.386;2023-07-31T09:19:29;26.20;96.70
44223;DHT22;29895;48.804;9.386;2023-07-31T09:21:55;26.40;96.10
44223;DHT22;29895;48.804;9.386;2023-07-31T09:24:28;26.30;96.20
44223;DHT22;29895;48.804;9.386;2023-07-31T09:26:54;26.20;96.70
44223;DHT22;29895;48.804;9.386;2023-07-31T09:29:22;26.30;96.30
44223;DHT22;29895;48.804;9.386;2023-07-31T09:31:48;26.60;95.80
44223;DHT22;29895;48.804;9.386;2023-07-31T09:34:13;26.70;95.80
44223;DHT22;29895;48.804;9.386;2023-07-31T09:36:43;26.70;95.60
44223;DHT22;29895;48.804;9.386;2023-07-31T09:39:10;26.70;95.10
44223;DHT22;29895;48.804;9.386;2023-07-31T09:41:38;26.80;95.10
44223;DHT22;29895;48.804;9.386;2023-07-31T09:44:04;26.60;95.40
44223;DHT22;29895;48.804;9.386;2023-07-31T09:46:30;26.10;95.70
44223;DHT22;29895;48.804;9.386;2023-07-31T09:49:12;25.80;96.00
44223;DHT22;29895;48.804;9.386;2023-07-31T09:51:39;25.70;96.00
44223;DHT22;29895;48.804;9.386;2023-07-31T09:54:12;25.50;96.50
44223;DHT22;29895;48.804;9.386;2023-07-31T09:56:47;25.00;97.20
44223;DHT22;29895;48.804;9.386;2023-07-31T09:59:14;25.00;97.60
44223;DHT22;29895;48.804;9.386;2023-07-31T10:01:41;25.20;97.40
44223;DHT22;29895;48.804;9.386;2023-07-31T10:04:09;25.20;97.30
44223;DHT22;29895;48.804;9.386;2023-07-31T10:06:35;25.30;97.40
44223;DHT22;29895;48.804;9.386;2023-07-31T10:09:04;25.50;97.10
44223;DHT22;29895;48.804;9.386;2023-07-31T10:11:46;25.30;97.00
44223;DHT22;29895;48.804;9.386;2023-07-31T10:14:20;25.20;97.20
44223;DHT22;29895;48.804;9.386;2023-07-31T10:16:46;25.30;97.40
44223;DHT22;29895;48.804;9.386;2023-07-31T10:19:12;25.30;97.00
44223;DHT22;29895;48.804;9.386;2023-07-31T10:21:38;25.50;96.70
44223;DHT22;29895;48.804;9.386;2023-07-31T10:24:04;25.60;97.00
44223;DHT22;29895;48.804;9.386;2023-07-31T10:26:31;25.60;96.70
44223;DHT22;29895;48.804;9.386;2023-07-31T10:28:59;25.50;97.00
44223;DHT22;29895;48.804;9.386;2023-07-31T10:31:27;25.50;97.00
44223;DHT22;29895;48.804;9.386;2023-07-31T10:33:55;25.70;96.50
44223;DHT22;29895;48.804;9.386;2023-07-31T10:36:21;26.00;96.40
44223;DHT22;29895;48.804;9.386;2023-07-31T10:38:50;26.20;96.10
44223;DHT22;29895;48.804;9.386;2023-07-31T10:41:18;26.40;95.60
44223;DHT22;29895;48.804;9.386;2023-07-31T10:43:46;26.70;95.30
44223;DHT22;29895;48.804;9.386;2023-07-31T10:46:13;26.90;95.30
44223;DHT22;29895;48.804;9.386;2023-07-31T10:48:40;27.00;95.30
44223;DHT22;29895;48.804;9.386;2023-07-31T10:51:11;27.10;95.20
44223;DHT22;29895;48.804;9.386;2023-07-31T10:53:38;27.40;94.60
44223;DHT22;29895;48.804;9.386;2023-07-31T10:56:06;27.60;94.40
44223;DHT22;29895;48.804;9.386;2023-07-31T10:58:32;27.80;93.70
44223;DHT22;29895;48.804;9.386;2023-07-31T11:01:00;27.90;93.90
44223;DHT22;29895;48.804;9.386;2023-07-31T11:03:40;27.80;93.20
44223;DHT22;29895;48.804;9.386;2023-07-31T11:06:07;27.60;93.30
44223;DHT22;29895;48.804;9.386;2023-07-31T11:08:34;27.80;93.00
44223;DHT22;29895;48.804;9.386;2023-07-31T11:13:29;26.90;93.20
44223;DHT22;29895;48.804;9.386;2023-07-31T11:15:55;26.50;93.70
44223;DHT22;29895;48.804;9.386;2023-07-31T11:18:20;26.50;94.10
44223;DHT22;29895;48.804;9.386;2023-07-31T11:20:46;26.90;94.10
44223;DHT22;29895;48.804;9.386;2023-07-31T11:23:12;27.30;94.00
44223;DHT22;29895;48.804;9.386;2023-07-31T11:25:39;27.60;93.90
44223;DHT22;29895;48.804;9.386;2023-07-31T11:28:15;28.00;93.80
44223;DHT22;29895;48.804;9.386;2023-07-31T11:30:42;28.30;93.40
44223;DHT22;29895;48.804;9.386;2023-07-31T11:33:09;28.40;92.30
44223;DHT22;29895;48.804;9.386;2023-07-31T11:35:40;28.00;92.20
44223;DHT22;29895;48.804;9.386;2023-07-31T11:38:07;27.30;92.80
44223;DHT22;29895;48.804;9.386;2023-07-31T11:40:42;26.90;93.80
44223;DHT22;29895;48.804;9.386;2023-07-31T11:43:07;26.90;93.40
44223;DHT22;29895;48.804;9.386;2023-07-31T11:45:33;26.90;93.50
44223;DHT22;29895;48.804;9.386;2023-07-31T11:48:01;26.90;93.60
44223;DHT22;29895;48.804;9.386;2023-07-31T11:50:27;27.10;94.30
44223;DHT22;29895;48.804;9.386;2023-07-31T11:53:01;26.80;93.80
44223;DHT22;29895;48.804;9.386;2023-07-31T11:55:28;26.40;94.10
44223;DHT22;29895;48.804;9.386;2023-07-31T11:57:56;26.20;94.40
44223;DHT22;29895;48.804;9.386;2023-07-31T12:00:23;25.70;95.10
44223;DHT22;29895;48.804;9.386;2023-07-31T12:02:50;25.30;95.90
44223;DHT22;29895;48.804;9.386;2023-07-31T12:05:16;25.10;96.30
44223;DHT22;29895;48.804;9.386;2023-07-31T12:07:50;25.00;96.10
44223;DHT22;29895;48.804;9.386;2023-07-31T12:13:10;25.20;96.10
44223;DHT22;29895;48.804;9.386;2023-07-31T12:15:45;25.50;96.30
44223;DHT22;29895;48.804;9.386;2023-07-31T12:18:21;25.70;96.20
44223;DHT22;29895;48.804;9.386;2023-07-31T12:20:58;25.70;96.20
44223;DHT22;29895;48.804;9.386;2023-07-31T12:23:31;25.70;96.20
44223;DHT22;29895;48.804;9.386;2023-07-31T12:26:05;25.80;95.90
44223;DHT22;29895;48.804;9.386;2023-07-31T12:28:35;25.70;96.10
44223;DHT22;29895;48.804;9.386;2023-07-31T12:31:02;25.80;97.00
44223;DHT22;29895;48.804;9.386;2023-07-31T12:33:32;25.80;96.50
44223;DHT22;29895;48.804;9.386;2023-07-31T12:36:00;25.80;96.30
44223;DHT22;29895;48.804;9.386;2023-07-31T12:38:26;25.60;96.40
44223;DHT22;29895;48.804;9.386;2023-07-31T12:40:51;25.60;96.40
44223;DHT22;29895;48.804;9.386;2023-07-31T12:43:17;25.50;96.60
44223;DHT22;29895;48.804;9.386;2023-07-31T12:45:43;25.50;96.50
44223;DHT22;29895;48.804;9.386;2023-07-31T12:48:09;25.60;96.50
44223;DHT22;29895;48.804;9.386;2023-07-31T12:50:35;25.60;96.60
44223;DHT22;29895;48.804;9.386;2023-07-31T12:53:02;25.50;96.60
44223;DHT22;29895;48.804;9.386;2023-07-31T12:55:31;25.50;96.60
44223;DHT22;29895;48.804;9.386;2023-07-31T12:58:00;25.30;96.60
44223;DHT22;29895;48.804;9.386;2023-07-31T13:00:25;25.20;96.70
44223;DHT22;29895;48.804;9.386;2023-07-31T13:02:51;25.20;97.30
44223;DHT22;29895;48.804;9.386;2023-07-31T13:05:17;25.20;96.90
44223;DHT22;29895;48.804;9.386;2023-07-31T13:07:45;25.10;97.50
44223;DHT22;29895;48.804;9.386;2023-07-31T13:10:10;25.10;97.50
44223;DHT22;29895;48.804;9.386;2023-07-31T13:12:36;25.10;97.80
44223;DHT22;29895;48.804;9.386;2023-07-31T13:15:03;25.10;97.60
44223;DHT22;29895;48.804;9.386;2023-07-31T13:17:29;25.10;97.80
44223;DHT22;29895;48.804;9.386;2023-07-31T13:19:54;25.00;98.40
44223;DHT22;29895;48.804;9.386;2023-07-31T13:22:20;25.00;98.20
44223;DHT22;29895;48.804;9.386;2023-07-31T13:24:46;25.10;98.60
44223;DHT22;29895;48.804;9.386;2023-07-31T13:27:11;25.00;97.40
44223;DHT22;29895;48.804;9.386;2023-07-31T13:29:37;24.70;98.00
44223;DHT22;29895;48.804;9.386;2023-07-31T13:32:03;24.60;98.60
44223;DHT22;29895;48.804;9.386;2023-07-31T13:34:29;24.60;98.80
44223;DHT22;29895;48.804;9.386;2023-07-31T13:36:55;24.60;98.30
44223;DHT22;29895;48.804;9.386;2023-07-31T13:39:21;24.50;98.20
44223;DHT22;29895;48.804;9.386;2023-07-31T13:41:47;24.40;98.50
44223;DHT22;29895;48.804;9.386;2023-07-31T13:44:12;24.30;97.90
44223;DHT22;29895;48.804;9.386;2023-07-31T13:46:38;24.30;98.20
44223;DHT22;29895;48.804;9.386;2023-07-31T13:49:04;24.30;98.90
44223;DHT22;29895;48.804;9.386;2023-07-31T13:51:29;24.60;98.30
44223;DHT22;29895;48.804;9.386;2023-07-31T13:53:55;24.90;97.80
44223;DHT22;29895;48.804;9.386;2023-07-31T13:56:21;25.20;97.20
44223;DHT22;29895;48.804;9.386;2023-07-31T13:58:46;25.40;97.30
44223;DHT22;29895;48.804;9.386;2023-07-31T14:01:12;25.50;97.50
44223;DHT22;29895;48.804;9.386;2023-07-31T14:03:37;25.30;97.20
44223;DHT22;29895;48.804;9.386;2023-07-31T14:06:03;25.10;97.30
44223;DHT22;29895;48.804;9.386;2023-07-31T14:08:29;25.20;97.00
44223;DHT22;29895;48.804;9.386;2023-07-31T14:10:55;25.40;96.60
44223;DHT22;29895;48.804;9.386;2023-07-31T14:13:21;25.70;97.00
44223;DHT22;29895;48.804;9.386;2023-07-31T14:15:47;25.80;96.60
44223;DHT22;29895;48.804;9.386;2023-07-31T14:18:12;25.80;96.30
44223;DHT22;29895;48.804;9.386;2023-07-31T14:20:38;26.00;96.00
44223;DHT22;29895;48.804;9.386;2023-07-31T14:23:03;25.80;96.20
44223;DHT22;29895;48.804;9.386;2023-07-31T14:25:29;25.80;96.40
44223;DHT22;29895;48.804;9.386;2023-07-31T14:27:55;25.80;97.00
44223;DHT22;29895;48.804;9.386;2023-07-31T14:30:20;25.80;97.30
44223;DHT22;29895;48.804;9.386;2023-07-31T14:32:46;25.90;97.70
44223;DHT22;29895;48.804;9.386;2023-07-31T14:35:12;25.80;97.90
44223;DHT22;29895;48.804;9.386;2023-07-31T14:37:42;25.90;97.80
44223;DHT22;29895;48.804;9.386;2023-07-31T14:40:09;25.80;96.90
44223;DHT22;29895;48.804;9.386;2023-07-31T14:42:35;25.70;97.00
44223;DHT22;29895;48.804;9.386;2023-07-31T14:45:02;25.70;97.60
44223;DHT22;29895;48.804;9.386;2023-07-31T14:47:28;25.80;97.60
44223;DHT22;29895;48.804;9.386;2023-07-31T14:49:53;25.80;97.70
44223;DHT22;29895;48.804;9.386;2023-07-31T14:52:19;25.80;97.30
44223;DHT22;29895;48.804;9.386;2023-07-31T14:54:45;25.60;97.50
44223;DHT22;29895;48.804;9.386;2023-07-31T14:57:10;25.60;97.90
44223;DHT22;29895;48.804;9.386;2023-07-31T14:59:36;25.70;97.90
44223;DHT22;29895;48.804;9.386;2023-07-31T15:02:02;25.80;98.50
44223;DHT22;29895;48.804;9.386;2023-07-31T15:04:28;25.80;98.00
44223;DHT22;29895;48.804;9.386;2023-07-31T15:06:55;25.80;97.50
44223;DHT22;29895;48.804;9.386;2023-07-31T15:09:20;25.80;97.70
44223;DHT22;29895;48.804;9.386;2023-07-31T15:11:47;26.10;97.20
44223;DHT22;29895;48.804;9.386;2023-07-31T15:14:13;26.30;96.80
44223;DHT22;29895;48.804;9.386;2023-07-31T15:16:38;26.60;96.60
44223;DHT22;29895;48.804;9.386;2023-07-31T15:19:04;27.00;96.30
44223;DHT22;29895;48.804;9.386;2023-07-31T15:21:30;27.30;96.20
44223;DHT22;29895;48.804;9.386;2023-07-31T15:23:55;27.60;96.00
44223;DHT22;29895;48.804;9.386;2023-07-31T15:26:21;27.80;95.50
44223;DHT22;29895;48.804;9.386;2023-07-31T15:28:50;27.60;95.50
44223;DHT22;29895;48.804;9.386;2023-07-31T15:31:20;27.60;95.20
44223;DHT22;29895;48.804;9.386;2023-07-31T15:33:48;27.40;94.40
44223;DHT22;29895;48.804;9.386;2023-07-31T15:36:13;27.00;95.10
44223;DHT22;29895;48.804;9.386;2023-07-31T15:38:39;26.60;95.90